sensor_id;sensor_type;location;lat;lon;timestamp;temperature;humidity
49777;DHT22;35673;51.482;7.436;2023-01-23T00:00:53;3.40;99.90
49777;DHT22;35673;51.482;7.436;2023-01-23T00:03:18;3.40;99.90
49777;DHT22;35673;51.482;7.436;2023-01-23T00:05:44;3.40;99.90
49777;DHT22;35673;51.482;7.436;2023-01-23T00:08:10;3.30;99.90
49777;DHT22;35673;51.482;7.436;2023-01-23T00:10:38;3.30;99.90
49777;DHT22;35673;51.482;7.436;2023-01-23T00:13:04;3.30;99.90
49777;DHT22;35673;51.482;7.436;2023-01-23T00:15:29;3.30;99.90
49777;DHT22;35673;51.482;7.436;2023-01-23T00:17:57;3.30;99.90
49777;DHT22;35673;51.482;7.436;2023-01-23T00:20:22;3.40;99.90
49777;DHT22;35673;51.482;7.436;2023-01-23T00:22:48;3.40;99.90
49777;DHT22;35673;51.482;7.436;2023-01-23T00:25:13;3.40;99.90
49777;DHT22;35673;51.482;7.436;2023-01-23T00:27:39;3.40;99.90
49777;DHT22;35673;51.482;7.436;2023-01-23T00:30:04;3.40;99.90
49777;DHT22;35673;51.482;7.436;2023-01-23T00:32:30;3.40;99.90
49777;DHT22;35673;51.482;7.436;2023-01-23T00:34:55;3.40;99.90
49777;DHT22;35673;51.482;7.436;2023-01-23T00:37:21;3.40;99.90
49777;DHT22;35673;51.482;7.436;2023-01-23T00:39:46;3.40;99.90
49777;DHT22;35673;51.482;7.436;2023-01-23T00:42:15;3.40;99.90
49777;DHT22;35673;51.482;7.436;2023-01-23T00:44:40;3.40;99.90
49777;DHT22;35673;51.482;7.436;2023-01-23T00:47:06;3.40;99.90
49777;DHT22;35673;51.482;7.436;2023-01-23T00:49:31;3.30;99.90
49777;DHT22;35673;51.482;7.436;2023-01-23T00:51:57;3.20;99.90
49777;DHT22;35673;51.482;7.436;2023-01-23T00:54:22;3.20;99.90
49777;DHT22;35673;51.482;7.436;2023-01-23T00:56:50;3.20;99.90
49777;DHT22;35673;51.482;7.436;2023-01-23T00:59:15;3.20;99.90
49777;DHT22;35673;51.482;7.436;2023-01-23T01:01:41;3.20;99.90
49777;DHT22;35673;51.482;7.436;2023-01-23T01:04:06;3.30;99.90
49777;DHT22;35673;51.482;7.436;2023-01-23T01:06:32;3.30;99.90
49777;DHT22;35673;51.482;7.436;2023-01-23T01:08:58;3.30;99.90
49777;DHT22;35673;51.482;7.436;2023-01-23T01:11:24;3.30;99.90
49777;DHT22;35673;51.482;7.436;2023-01-23T01:13:49;3.30;99.90
49777;DHT22;35673;51.482;7.436;2023-01-23T01:16:15;3.30;99.90
49777;DHT22;35673;51.482;7.436;2023-01-23T01:18:40;3.30;99.90
49777;DHT22;35673;51.482;7.436;2023-01-23T01:21:10;3.30;99.90
49777;DHT22;35673;51.482;7.436;2023-01-23T01:23:36;3.30;99.90
49777;DHT22;35673;51.482;7.436;2023-01-23T01:26:02;3.30;99.90
49777;DHT22;35673;51.482;7.436;2023-01-23T01:28:28;3.30;99.90
49777;DHT22;35673;51.482;7.436;2023-01-23T01:30:57;3.30;99.90
49777;DHT22;35673;51.482;7.436;2023-01-23T01:33:27;3.30;99.90
49777;DHT22;35673;51.482;7.436;2023-01-23T01:35:52;3.30;99.90
49777;DHT22;35673;51.482;7.436;2023-01-23T01:38:21;3.30;99.90
49777;DHT22;35673;51.482;7.436;2023-01-23T01:40:47;3.30;99.90
49777;DHT22;35673;51.482;7.436;2023-01-23T01:43:23;3.30;99.90
49777;DHT22;35673;51.482;7.436;2023-01-23T01:46:09;3.30;99.90
49777;DHT22;35673;51.482;7.436;2023-01-23T01:48:37;3.20;99.90
49777;DHT22;35673;51.482;7.436;2023-01-23T01:51:06;3.20;99.90
49777;DHT22;35673;51.482;7.436;2023-01-23T01:53:33;3.20;99.90
49777;DHT22;35673;51.482;7.436;2023-01-23T01:55:59;3.30;99.90
49777;DHT22;35673;51.482;7.436;2023-01-23T01:58:25;3.20;99.90
49777;DHT22;35673;51.482;7.436;2023-01-23T02:00:51;3.20;99.90
49777;DHT22;35673;51.482;7.436;2023-01-23T02:03:17;3.10;99.90
49777;DHT22;35673;51.482;7.436;2023-01-23T02:05:46;3.20;99.90
49777;DHT22;35673;51.482;7.436;2023-01-23T02:10:39;3.10;99.90
49777;DHT22;35673;51.482;7.436;2023-01-23T02:15:50;3.10;99.90
49777;DHT22;35673;51.482;7.436;2023-01-23T02:18:16;3.10;99.90
49777;DHT22;35673;51.482;7.436;2023-01-23T02:20:42;3.10;99.90
49777;DHT22;35673;51.482;7.436;2023-01-23T02:26:00;3.10;99.90
49777;DHT22;35673;51.482;7.436;2023-01-23T02:28:35;3.10;99.90
49777;DHT22;35673;51.482;7.436;2023-01-23T02:31:01;3.10;99.90
49777;DHT22;35673;51.482;7.436;2023-01-23T02:35:52;3.10;99.90
49777;DHT22;35673;51.482;7.436;2023-01-23T02:38:18;3.10;99.90
49777;DHT22;35673;51.482;7.436;2023-01-23T02:40:46;3.10;99.90
49777;DHT22;35673;51.482;7.436;2023-01-23T02:43:12;3.20;99.90
49777;DHT22;35673;51.482;7.436;2023-01-23T02:45:39;3.20;99.90
49777;DHT22;35673;51.482;7.436;2023-01-23T02:48:04;3.20;99.90
49777;DHT22;35673;51.482;7.436;2023-01-23T02:50:32;3.10;99.90
49777;DHT22;35673;51.482;7.436;2023-01-23T02:52:57;3.20;99.90
49777;DHT22;35673;51.482;7.436;2023-01-23T02:55:23;3.20;99.90
49777;DHT22;35673;51.482;7.436;2023-01-23T02:57:57;3.20;99.90
49777;DHT22;35673;51.482;7.436;2023-01-23T03:00:43;3.20;99.90
49777;DHT22;35673;51.482;7.436;2023-01-23T03:03:08;3.20;99.90
49777;DHT22;35673;51.482;7.436;2023-01-23T03:05:34;3.20;99.90
49777;DHT22;35673;51.482;7.436;2023-01-23T03:07:59;3.30;99.90
49777;DHT22;35673;51.482;7.436;2023-01-23T03:10:25;3.30;99.90
49777;DHT22;35673;51.482;7.436;2023-01-23T03:12:50;3.30;99.90
49777;DHT22;35673;51.482;7.436;2023-01-23T03:15:16;3.30;99.90
49777;DHT22;35673;51.482;7.436;2023-01-23T03:17:41;3.30;99.90
49777;DHT22;35673;51.482;7.436;2023-01-23T03:20:07;3.30;99.90
49777;DHT22;35673;51.482;7.436;2023-01-23T03:22:33;3.30;99.90
49777;DHT22;35673;51.482;7.436;2023-01-23T03:24:58;3.30;99.90
49777;DHT22;35673;51.482;7.436;2023-01-23T03:27:24;3.40;99.90
49777;DHT22;35673;51.482;7.436;2023-01-23T03:29:49;3.40;99.90
49777;DHT22;35673;51.482;7.436;2023-01-23T03:32:33;3.40;99.90
49777;DHT22;35673;51.482;7.436;2023-01-23T03:34:59;3.30;99.90
49777;DHT22;35673;51.482;7.436;2023-01-23T03:37:24;3.30;99.90
49777;DHT22;35673;51.482;7.436;2023-01-23T03:39:50;3.30;99.90
49777;DHT22;35673;51.482;7.436;2023-01-23T03:42:34;3.30;99.90
49777;DHT22;35673;51.482;7.436;2023-01-23T03:45:00;3.30;99.90
49777;DHT22;35673;51.482;7.436;2023-01-23T03:47:26;3.30;99.90
49777;DHT22;35673;51.482;7.436;2023-01-23T03:49:51;3.30;99.90
49777;DHT22;35673;51.482;7.436;2023-01-23T03:52:17;3.30;99.90
49777;DHT22;35673;51.482;7.436;2023-01-23T03:54:42;3.40;99.90
49777;DHT22;35673;51.482;7.436;2023-01-23T03:57:08;3.40;99.90
49777;DHT22;35673;51.482;7.436;2023-01-23T03:59:33;3.30;99.90
49777;DHT22;35673;51.482;7.436;2023-01-23T04:01:59;3.30;99.90
49777;DHT22;35673;51.482;7.436;2023-01-23T04:04:25;3.30;99.90
49777;DHT22;35673;51.482;7.436;2023-01-23T04:06:51;3.30;99.90
49777;DHT22;35673;51.482;7.436;2023-01-23T04:09:16;3.30;99.90
49777;DHT22;35673;51.482;7.436;2023-01-23T04:11:42;3.30;99.90
49777;DHT22;35673;51.482;7.436;2023-01-23T04:14:07;3.30;99.90
49777;DHT22;35673;51.482;7.436;2023-01-23T04:16:33;3.30;99.90
49777;DHT22;35673;51.482;7.436;2023-01-23T04:18:58;3.30;99.90
49777;DHT22;35673;51.482;7.436;2023-01-23T04:21:24;3.30;99.90
49777;DHT22;35673;51.482;7.436;2023-01-23T04:23:49;3.30;99.90
49777;DHT22;35673;51.482;7.436;2023-01-23T04:26:15;3.30;99.90
49777;DHT22;35673;51.482;7.436;2023-01-23T04:28:40;3.40;99.90
49777;DHT22;35673;51.482;7.436;2023-01-23T04:31:06;3.40;99.90
49777;DHT22;35673;51.482;7.436;2023-01-23T04:33:33;3.40;99.90
49777;DHT22;35673;51.482;7.436;2023-01-23T04:35:59;3.30;99.90
49777;DHT22;35673;51.482;7.436;2023-01-23T04:38:26;3.30;99.90
49777;DHT22;35673;51.482;7.436;2023-01-23T04:40:52;3.30;99.90
49777;DHT22;35673;51.482;7.436;2023-01-23T04:43:18;3.20;99.90
49777;DHT22;35673;51.482;7.436;2023-01-23T04:45:43;3.30;99.90
49777;DHT22;35673;51.482;7.436;2023-01-23T04:48:10;3.30;99.90
49777;DHT22;35673;51.482;7.436;2023-01-23T04:50:35;3.30;99.90
49777;DHT22;35673;51.482;7.436;2023-01-23T04:53:01;3.30;99.90
49777;DHT22;35673;51.482;7.436;2023-01-23T04:55:27;3.30;99.90
49777;DHT22;35673;51.482;7.436;2023-01-23T04:57:52;3.30;99.90
49777;DHT22;35673;51.482;7.436;2023-01-23T05:00:18;3.30;99.90
49777;DHT22;35673;51.482;7.436;2023-01-23T05:02:47;3.30;99.90
49777;DHT22;35673;51.482;7.436;2023-01-23T05:05:13;3.30;99.90
49777;DHT22;35673;51.482;7.436;2023-01-23T05:07:38;3.30;99.90
49777;DHT22;35673;51.482;7.436;2023-01-23T05:10:04;3.30;99.90
49777;DHT22;35673;51.482;7.436;2023-01-23T05:12:30;3.30;99.90
49777;DHT22;35673;51.482;7.436;2023-01-23T05:14:56;3.30;99.90
49777;DHT22;35673;51.482;7.436;2023-01-23T05:17:21;3.30;99.90
49777;DHT22;35673;51.482;7.436;2023-01-23T05:19:46;3.20;99.90
49777;DHT22;35673;51.482;7.436;2023-01-23T05:22:12;3.20;99.90
49777;DHT22;35673;51.482;7.436;2023-01-23T05:24:37;3.20;99.90
49777;DHT22;35673;51.482;7.436;2023-01-23T05:27:03;3.20;99.90
49777;DHT22;35673;51.482;7.436;2023-01-23T05:29:28;3.20;99.90
49777;DHT22;35673;51.482;7.436;2023-01-23T05:31:54;3.20;99.90
49777;DHT22;35673;51.482;7.436;2023-01-23T05:34:19;3.20;99.90
49777;DHT22;35673;51.482;7.436;2023-01-23T05:36:45;3.20;99.90
49777;DHT22;35673;51.482;7.436;2023-01-23T05:39:10;3.20;99.90
49777;DHT22;35673;51.482;7.436;2023-01-23T05:41:36;3.30;99.90
49777;DHT22;35673;51.482;7.436;2023-01-23T05:44:01;3.30;99.90
49777;DHT22;35673;51.482;7.436;2023-01-23T05:46:27;3.30;99.90
49777;DHT22;35673;51.482;7.436;2023-01-23T05:48:52;3.30;99.90
49777;DHT22;35673;51.482;7.436;2023-01-23T05:51:18;3.20;99.90
49777;DHT22;35673;51.482;7.436;2023-01-23T05:53:43;3.20;99.90
49777;DHT22;35673;51.482;7.436;2023-01-23T05:56:09;3.20;99.90
49777;DHT22;35673;51.482;7.436;2023-01-23T05:58:34;3.20;99.90
49777;DHT22;35673;51.482;7.436;2023-01-23T06:01:01;3.10;99.90
49777;DHT22;35673;51.482;7.436;2023-01-23T06:03:26;3.10;99.90
49777;DHT22;35673;51.482;7.436;2023-01-23T06:05:52;3.10;99.90
49777;DHT22;35673;51.482;7.436;2023-01-23T06:08:17;3.10;99.90
49777;DHT22;35673;51.482;7.436;2023-01-23T06:10:43;3.10;99.90
49777;DHT22;35673;51.482;7.436;2023-01-23T06:13:09;3.00;99.90
49777;DHT22;35673;51.482;7.436;2023-01-23T06:15:35;3.10;99.90
49777;DHT22;35673;51.482;7.436;2023-01-23T06:18:00;3.00;99.90
49777;DHT22;35673;51.482;7.436;2023-01-23T06:20:26;3.00;99.90
49777;DHT22;35673;51.482;7.436;2023-01-23T06:22:51;3.00;99.90
49777;DHT22;35673;51.482;7.436;2023-01-23T06:25:17;3.10;99.90
49777;DHT22;35673;51.482;7.436;2023-01-23T06:27:45;3.10;99.90
49777;DHT22;35673;51.482;7.436;2023-01-23T06:30:10;3.10;99.90
49777;DHT22;35673;51.482;7.436;2023-01-23T06:32:36;3.20;99.90
49777;DHT22;35673;51.482;7.436;2023-01-23T06:35:01;3.20;99.90
49777;DHT22;35673;51.482;7.436;2023-01-23T06:37:27;3.20;99.90
49777;DHT22;35673;51.482;7.436;2023-01-23T06:39:52;3.30;99.90
49777;DHT22;35673;51.482;7.436;2023-01-23T06:42:18;3.30;99.90
49777;DHT22;35673;51.482;7.436;2023-01-23T06:44:43;3.30;99.90
49777;DHT22;35673;51.482;7.436;2023-01-23T06:47:09;3.30;99.90
49777;DHT22;35673;51.482;7.436;2023-01-23T06:49:34;3.30;99.90
49777;DHT22;35673;51.482;7.436;2023-01-23T06:52:00;3.30;99.90
49777;DHT22;35673;51.482;7.436;2023-01-23T06:54:25;3.30;99.90
49777;DHT22;35673;51.482;7.436;2023-01-23T06:56:51;3.40;99.90
49777;DHT22;35673;51.482;7.436;2023-01-23T06:59:16;3.40;99.90
49777;DHT22;35673;51.482;7.436;2023-01-23T07:01:42;3.40;99.90
49777;DHT22;35673;51.482;7.436;2023-01-23T07:04:07;3.40;99.90
49777;DHT22;35673;51.482;7.436;2023-01-23T07:06:36;3.40;99.90
49777;DHT22;35673;51.482;7.436;2023-01-23T07:09:01;3.40;99.90
49777;DHT22;35673;51.482;7.436;2023-01-23T07:11:27;3.40;99.90
49777;DHT22;35673;51.482;7.436;2023-01-23T07:13:52;3.40;99.90
49777;DHT22;35673;51.482;7.436;2023-01-23T07:16:18;3.30;99.90
49777;DHT22;35673;51.482;7.436;2023-01-23T07:18:44;3.30;99.90
49777;DHT22;35673;51.482;7.436;2023-01-23T07:21:09;3.30;99.90
49777;DHT22;35673;51.482;7.436;2023-01-23T07:23:35;3.30;99.90
49777;DHT22;35673;51.482;7.436;2023-01-23T07:26:01;3.30;99.90
49777;DHT22;35673;51.482;7.436;2023-01-23T07:28:28;3.40;99.90
49777;DHT22;35673;51.482;7.436;2023-01-23T07:30:53;3.40;99.90
49777;DHT22;35673;51.482;7.436;2023-01-23T07:33:18;3.40;99.90
49777;DHT22;35673;51.482;7.436;2023-01-23T07:35:44;3.30;99.90
49777;DHT22;35673;51.482;7.436;2023-01-23T07:38:09;3.40;99.90
49777;DHT22;35673;51.482;7.436;2023-01-23T07:40:35;3.30;99.90
49777;DHT22;35673;51.482;7.436;2023-01-23T07:43:03;3.30;99.90
49777;DHT22;35673;51.482;7.436;2023-01-23T07:45:29;3.30;99.90
49777;DHT22;35673;51.482;7.436;2023-01-23T07:47:54;3.30;99.90
49777;DHT22;35673;51.482;7.436;2023-01-23T07:50:20;3.40;99.90
49777;DHT22;35673;51.482;7.436;2023-01-23T07:52:45;3.40;99.90
49777;DHT22;35673;51.482;7.436;2023-01-23T07:55:11;3.40;99.90
49777;DHT22;35673;51.482;7.436;2023-01-23T07:57:36;3.40;99.90
49777;DHT22;35673;51.482;7.436;2023-01-23T08:00:02;3.40;99.90
49777;DHT22;35673;51.482;7.436;2023-01-23T08:02:28;3.40;99.90
49777;DHT22;35673;51.482;7.436;2023-01-23T08:04:53;3.40;99.90
49777;DHT22;35673;51.482;7.436;2023-01-23T08:07:19;3.40;99.90
49777;DHT22;35673;51.482;7.436;2023-01-23T08:09:44;3.30;99.90
49777;DHT22;35673;51.482;7.436;2023-01-23T08:12:10;3.30;99.90
49777;DHT22;35673;51.482;7.436;2023-01-23T08:14:36;3.40;99.90
49777;DHT22;35673;51.482;7.436;2023-01-23T08:17:01;3.40;99.90
49777;DHT22;35673;51.482;7.436;2023-01-23T08:19:26;3.40;99.90
49777;DHT22;35673;51.482;7.436;2023-01-23T08:21:52;3.40;99.90
49777;DHT22;35673;51.482;7.436;2023-01-23T08:24:18;3.50;99.90
49777;DHT22;35673;51.482;7.436;2023-01-23T08:26:43;3.40;99.90
49777;DHT22;35673;51.482;7.436;2023-01-23T08:29:09;3.40;99.90
49777;DHT22;35673;51.482;7.436;2023-01-23T08:31:35;3.40;99.90
49777;DHT22;35673;51.482;7.436;2023-01-23T08:34:01;3.50;99.90
49777;DHT22;35673;51.482;7.436;2023-01-23T08:36:26;3.50;99.90
49777;DHT22;35673;51.482;7.436;2023-01-23T08:38:52;3.40;99.90
49777;DHT22;35673;51.482;7.436;2023-01-23T08:41:17;3.40;99.90
49777;DHT22;35673;51.482;7.436;2023-01-23T08:43:43;3.50;99.90
49777;DHT22;35673;51.482;7.436;2023-01-23T08:46:08;3.50;99.90
49777;DHT22;35673;51.482;7.436;2023-01-23T08:48:34;3.50;99.90
49777;DHT22;35673;51.482;7.436;2023-01-23T08:51:01;3.50;99.90
49777;DHT22;35673;51.482;7.436;2023-01-23T08:53:27;3.50;99.90
49777;DHT22;35673;51.482;7.436;2023-01-23T08:55:52;3.50;99.90
49777;DHT22;35673;51.482;7.436;2023-01-23T08:58:18;3.50;99.90
49777;DHT22;35673;51.482;7.436;2023-01-23T09:00:44;3.50;99.90
49777;DHT22;35673;51.482;7.436;2023-01-23T09:03:11;3.60;99.90
49777;DHT22;35673;51.482;7.436;2023-01-23T09:05:37;3.70;99.90
49777;DHT22;35673;51.482;7.436;2023-01-23T09:08:02;3.70;99.90
49777;DHT22;35673;51.482;7.436;2023-01-23T09:10:28;3.70;99.90
49777;DHT22;35673;51.482;7.436;2023-01-23T09:12:53;3.70;99.90
49777;DHT22;35673;51.482;7.436;2023-01-23T09:15:19;3.60;99.90
49777;DHT22;35673;51.482;7.436;2023-01-23T09:17:44;3.70;99.90
49777;DHT22;35673;51.482;7.436;2023-01-23T09:20:10;3.60;99.90
49777;DHT22;35673;51.482;7.436;2023-01-23T09:22:36;3.70;99.90
49777;DHT22;35673;51.482;7.436;2023-01-23T09:25:01;3.80;99.90
49777;DHT22;35673;51.482;7.436;2023-01-23T09:27:27;3.80;99.90
49777;DHT22;35673;51.482;7.436;2023-01-23T09:29:52;3.80;99.90
49777;DHT22;35673;51.482;7.436;2023-01-23T09:32:18;3.90;99.90
49777;DHT22;35673;51.482;7.436;2023-01-23T09:34:43;3.90;99.90
49777;DHT22;35673;51.482;7.436;2023-01-23T09:37:09;3.80;99.90
49777;DHT22;35673;51.482;7.436;2023-01-23T09:39:34;3.90;99.90
49777;DHT22;35673;51.482;7.436;2023-01-23T09:42:03;3.90;99.90
49777;DHT22;35673;51.482;7.436;2023-01-23T09:44:42;4.00;99.90
49777;DHT22;35673;51.482;7.436;2023-01-23T09:50:42;4.00;99.90
49777;DHT22;35673;51.482;7.436;2023-01-23T09:52:45;4.20;99.90
49777;DHT22;35673;51.482;7.436;2023-01-23T09:57:45;4.10;99.90
49777;DHT22;35673;51.482;7.436;2023-01-23T10:00:14;4.10;99.90
49777;DHT22;35673;51.482;7.436;2023-01-23T10:02:41;4.20;99.90
49777;DHT22;35673;51.482;7.436;2023-01-23T10:05:07;4.20;99.90
49777;DHT22;35673;51.482;7.436;2023-01-23T10:15:41;4.50;99.90
49777;DHT22;35673;51.482;7.436;2023-01-23T10:25:41;4.30;99.90
49777;DHT22;35673;51.482;7.436;2023-01-23T10:30:39;4.20;99.90
49777;DHT22;35673;51.482;7.436;2023-01-23T10:33:10;4.20;99.90
49777;DHT22;35673;51.482;7.436;2023-01-23T10:35:50;4.30;99.90
49777;DHT22;35673;51.482;7.436;2023-01-23T10:38:25;4.30;99.90
49777;DHT22;35673;51.482;7.436;2023-01-23T10:40:51;4.30;99.90
49777;DHT22;35673;51.482;7.436;2023-01-23T10:43:35;4.30;99.90
49777;DHT22;35673;51.482;7.436;2023-01-23T10:46:01;4.30;99.90
49777;DHT22;35673;51.482;7.436;2023-01-23T10:48:43;4.40;99.90
49777;DHT22;35673;51.482;7.436;2023-01-23T10:51:25;4.30;99.90
49777;DHT22;35673;51.482;7.436;2023-01-23T10:56:35;4.40;99.90
49777;DHT22;35673;51.482;7.436;2023-01-23T10:59:02;4.50;99.90
49777;DHT22;35673;51.482;7.436;2023-01-23T11:01:29;4.60;99.90
49777;DHT22;35673;51.482;7.436;2023-01-23T11:03:55;4.80;99.90
49777;DHT22;35673;51.482;7.436;2023-01-23T11:06:22;5.00;99.90
49777;DHT22;35673;51.482;7.436;2023-01-23T11:13:45;5.40;99.90
49777;DHT22;35673;51.482;7.436;2023-01-23T11:16:15;5.40;99.90
49777;DHT22;35673;51.482;7.436;2023-01-23T11:18:42;5.20;99.90
49777;DHT22;35673;51.482;7.436;2023-01-23T11:21:21;5.10;99.90
49777;DHT22;35673;51.482;7.436;2023-01-23T11:23:46;5.20;99.90
49777;DHT22;35673;51.482;7.436;2023-01-23T11:26:30;5.20;99.90
49777;DHT22;35673;51.482;7.436;2023-01-23T11:28:56;5.30;99.90
49777;DHT22;35673;51.482;7.436;2023-01-23T11:31:22;5.30;99.90
49777;DHT22;35673;51.482;7.436;2023-01-23T11:33:53;5.40;99.90
49777;DHT22;35673;51.482;7.436;2023-01-23T11:38:51;5.50;99.90
49777;DHT22;35673;51.482;7.436;2023-01-23T11:41:18;5.50;99.90
49777;DHT22;35673;51.482;7.436;2023-01-23T11:43:43;5.50;99.90
49777;DHT22;35673;51.482;7.436;2023-01-23T11:46:13;5.60;99.90
49777;DHT22;35673;51.482;7.436;2023-01-23T11:49:48;5.60;99.90
49777;DHT22;35673;51.482;7.436;2023-01-23T11:51:37;5.60;99.90
49777;DHT22;35673;51.482;7.436;2023-01-23T11:56:59;5.50;99.90
49777;DHT22;35673;51.482;7.436;2023-01-23T12:04:29;5.20;99.90
49777;DHT22;35673;51.482;7.436;2023-01-23T12:07:16;5.20;99.90
49777;DHT22;35673;51.482;7.436;2023-01-23T12:17:31;5.10;99.90
49777;DHT22;35673;51.482;7.436;2023-01-23T12:20:17;5.10;99.90
49777;DHT22;35673;51.482;7.436;2023-01-23T12:22:55;5.10;99.90
49777;DHT22;35673;51.482;7.436;2023-01-23T12:25:37;5.10;99.90
49777;DHT22;35673;51.482;7.436;2023-01-23T12:33:25;5.10;99.90
49777;DHT22;35673;51.482;7.436;2023-01-23T12:38:29;5.10;99.90
49777;DHT22;35673;51.482;7.436;2023-01-23T12:41:10;5.00;99.90
49777;DHT22;35673;51.482;7.436;2023-01-23T12:43:44;4.90;99.90
49777;DHT22;35673;51.482;7.436;2023-01-23T12:46:13;5.00;99.90
49777;DHT22;35673;51.482;7.436;2023-01-23T12:48:42;5.00;99.90
49777;DHT22;35673;51.482;7.436;2023-01-23T12:51:11;5.00;99.90
49777;DHT22;35673;51.482;7.436;2023-01-23T12:53:38;4.90;99.90
49777;DHT22;35673;51.482;7.436;2023-01-23T12:56:13;4.90;99.90
49777;DHT22;35673;51.482;7.436;2023-01-23T12:58:40;4.90;99.90
49777;DHT22;35673;51.482;7.436;2023-01-23T13:01:11;4.90;99.90
49777;DHT22;35673;51.482;7.436;2023-01-23T13:03:47;4.90;99.90
49777;DHT22;35673;51.482;7.436;2023-01-23T13:06:38;4.90;99.90
49777;DHT22;35673;51.482;7.436;2023-01-23T13:16:49;4.70;99.90
49777;DHT22;35673;51.482;7.436;2023-01-23T13:19:28;4.70;99.90
49777;DHT22;35673;51.482;7.436;2023-01-23T13:22:15;4.70;99.90
49777;DHT22;35673;51.482;7.436;2023-01-23T13:24:43;4.70;99.90
49777;DHT22;35673;51.482;7.436;2023-01-23T13:32:54;4.70;99.90
49777;DHT22;35673;51.482;7.436;2023-01-23T13:43:43;4.80;99.90
49777;DHT22;35673;51.482;7.436;2023-01-23T13:51:44;4.80;99.90
49777;DHT22;35673;51.482;7.436;2023-01-23T13:54:14;4.80;99.90
49777;DHT22;35673;51.482;7.436;2023-01-23T13:56:59;4.80;99.90
49777;DHT22;35673;51.482;7.436;2023-01-23T13:59:27;4.80;99.90
49777;DHT22;35673;51.482;7.436;2023-01-23T14:04:59;4.80;99.90
49777;DHT22;35673;51.482;7.436;2023-01-23T14:07:37;4.70;99.90
49777;DHT22;35673;51.482;7.436;2023-01-23T14:10:17;4.70;99.90
49777;DHT22;35673;51.482;7.436;2023-01-23T14:12:44;4.70;99.90
49777;DHT22;35673;51.482;7.436;2023-01-23T14:15:18;4.70;99.90
49777;DHT22;35673;51.482;7.436;2023-01-23T14:18:02;4.60;99.90
49777;DHT22;35673;51.482;7.436;2023-01-23T14:20:30;4.60;99.90
49777;DHT22;35673;51.482;7.436;2023-01-23T14:22:57;4.60;99.90
49777;DHT22;35673;51.482;7.436;2023-01-23T14:25:22;4.60;99.90
49777;DHT22;35673;51.482;7.436;2023-01-23T14:27:47;4.60;99.90
49777;DHT22;35673;51.482;7.436;2023-01-23T14:32:39;4.60;99.90
49777;DHT22;35673;51.482;7.436;2023-01-23T14:35:22;4.50;99.90
49777;DHT22;35673;51.482;7.436;2023-01-23T14:37:48;4.60;99.90
49777;DHT22;35673;51.482;7.436;2023-01-23T14:40:15;4.60;99.90
49777;DHT22;35673;51.482;7.436;2023-01-23T14:42:40;4.60;99.90
49777;DHT22;35673;51.482;7.436;2023-01-23T14:45:07;4.60;99.90
49777;DHT22;35673;51.482;7.436;2023-01-23T14:47:39;4.60;99.90
49777;DHT22;35673;51.482;7.436;2023-01-23T14:50:10;4.60;99.90
49777;DHT22;35673;51.482;7.436;2023-01-23T14:52:36;4.60;99.90
49777;DHT22;35673;51.482;7.436;2023-01-23T14:55:01;4.60;99.90
49777;DHT22;35673;51.482;7.436;2023-01-23T14:57:27;4.60;99.90
49777;DHT22;35673;51.482;7.436;2023-01-23T14:59:57;4.60;99.90
49777;DHT22;35673;51.482;7.436;2023-01-23T15:02:31;4.60;99.90
49777;DHT22;35673;51.482;7.436;2023-01-23T15:07:31;4.50;99.90
49777;DHT22;35673;51.482;7.436;2023-01-23T15:09:57;4.60;99.90
49777;DHT22;35673;51.482;7.436;2023-01-23T15:12:23;4.50;99.90
49777;DHT22;35673;51.482;7.436;2023-01-23T15:14:51;4.50;99.90
49777;DHT22;35673;51.482;7.436;2023-01-23T15:17:19;4.50;99.90
49777;DHT22;35673;51.482;7.436;2023-01-23T15:19:51;4.50;99.90
49777;DHT22;35673;51.482;7.436;2023-01-23T15:22:21;4.50;99.90
49777;DHT22;35673;51.482;7.436;2023-01-23T15:24:49;4.50;99.90
49777;DHT22;35673;51.482;7.436;2023-01-23T15:27:25;4.50;99.90
49777;DHT22;35673;51.482;7.436;2023-01-23T15:29:51;4.50;99.90
49777;DHT22;35673;51.482;7.436;2023-01-23T15:32:22;4.40;99.90
49777;DHT22;35673;51.482;7.436;2023-01-23T15:34:52;4.40;99.90
49777;DHT22;35673;51.482;7.436;2023-01-23T15:37:28;4.40;99.90
49777;DHT22;35673;51.482;7.436;2023-01-23T15:40:00;4.40;99.90
49777;DHT22;35673;51.482;7.436;2023-01-23T15:42:29;4.40;99.90
49777;DHT22;35673;51.482;7.436;2023-01-23T15:44:55;4.40;99.90
49777;DHT22;35673;51.482;7.436;2023-01-23T15:47:25;4.40;99.90
49777;DHT22;35673;51.482;7.436;2023-01-23T15:49:51;4.40;99.90
49777;DHT22;35673;51.482;7.436;2023-01-23T15:52:18;4.30;99.90
49777;DHT22;35673;51.482;7.436;2023-01-23T15:54:44;4.30;99.90
49777;DHT22;35673;51.482;7.436;2023-01-23T15:57:10;4.30;99.90
49777;DHT22;35673;51.482;7.436;2023-01-23T15:59:36;4.30;99.90
49777;DHT22;35673;51.482;7.436;2023-01-23T16:02:02;4.30;99.90
49777;DHT22;35673;51.482;7.436;2023-01-23T16:04:27;4.30;99.90
49777;DHT22;35673;51.482;7.436;2023-01-23T16:06:53;4.30;99.90
49777;DHT22;35673;51.482;7.436;2023-01-23T16:09:28;4.30;99.90
49777;DHT22;35673;51.482;7.436;2023-01-23T16:11:55;4.20;99.90
49777;DHT22;35673;51.482;7.436;2023-01-23T16:14:21;4.30;99.90
49777;DHT22;35673;51.482;7.436;2023-01-23T16:16:46;4.30;99.90
49777;DHT22;35673;51.482;7.436;2023-01-23T16:19:12;4.20;99.90
49777;DHT22;35673;51.482;7.436;2023-01-23T16:21:37;4.20;99.90
49777;DHT22;35673;51.482;7.436;2023-01-23T16:24:03;4.30;99.90
49777;DHT22;35673;51.482;7.436;2023-01-23T16:26:29;4.20;99.90
49777;DHT22;35673;51.482;7.436;2023-01-23T16:28:55;4.30;99.90
49777;DHT22;35673;51.482;7.436;2023-01-23T16:31:21;4.30;99.90
49777;DHT22;35673;51.482;7.436;2023-01-23T16:33:46;4.30;99.90
49777;DHT22;35673;51.482;7.436;2023-01-23T16:36:15;4.30;99.90
49777;DHT22;35673;51.482;7.436;2023-01-23T16:38:51;4.20;99.90
49777;DHT22;35673;51.482;7.436;2023-01-23T16:41:18;4.30;99.90
49777;DHT22;35673;51.482;7.436;2023-01-23T16:43:43;4.30;99.90
49777;DHT22;35673;51.482;7.436;2023-01-23T16:46:09;4.20;99.90
49777;DHT22;35673;51.482;7.436;2023-01-23T16:48:35;4.20;99.90
49777;DHT22;35673;51.482;7.436;2023-01-23T16:53:42;4.20;99.90
49777;DHT22;35673;51.482;7.436;2023-01-23T16:56:11;4.20;99.90
49777;DHT22;35673;51.482;7.436;2023-01-23T16:58:39;4.20;99.90
49777;DHT22;35673;51.482;7.436;2023-01-23T17:01:23;4.20;99.90
49777;DHT22;35673;51.482;7.436;2023-01-23T17:03:58;4.20;99.90
49777;DHT22;35673;51.482;7.436;2023-01-23T17:06:24;4.20;99.90
49777;DHT22;35673;51.482;7.436;2023-01-23T17:08:49;4.10;99.90
49777;DHT22;35673;51.482;7.436;2023-01-23T17:11:18;4.20;99.90
49777;DHT22;35673;51.482;7.436;2023-01-23T17:13:44;4.20;99.90
49777;DHT22;35673;51.482;7.436;2023-01-23T17:16:09;4.20;99.90
49777;DHT22;35673;51.482;7.436;2023-01-23T17:18:35;4.20;99.90
49777;DHT22;35673;51.482;7.436;2023-01-23T17:21:02;4.30;99.90
49777;DHT22;35673;51.482;7.436;2023-01-23T17:23:27;4.20;99.90
49777;DHT22;35673;51.482;7.436;2023-01-23T17:25:53;4.20;99.90
49777;DHT22;35673;51.482;7.436;2023-01-23T17:28:18;4.20;99.90
49777;DHT22;35673;51.482;7.436;2023-01-23T17:30:45;4.20;99.90
49777;DHT22;35673;51.482;7.436;2023-01-23T17:33:19;4.20;99.90